createdAt,value
2018-06-01T00:01:21.754Z,18.80
2018-06-01T00:04:24.853Z,18.84
2018-06-01T00:07:26.984Z,18.82
2018-06-01T00:10:30.084Z,18.86
2018-06-01T00:13:32.120Z,18.88
2018-06-01T00:16:34.138Z,18.85
2018-06-01T00:19:36.292Z,18.84
2018-06-01T00:22:38.352Z,18.86
2018-06-01T00:25:41.484Z,18.84
2018-06-01T00:28:43.620Z,18.84
2018-06-01T00:31:45.677Z,18.82
2018-06-01T00:34:47.741Z,18.94
2018-06-01T00:37:49.840Z,19.03
2018-06-01T00:40:51.899Z,19.05
2018-06-01T00:43:54.065Z,19.02
2018-06-01T00:46:56.137Z,19.03
2018-06-01T00:49:58.513Z,18.98
2018-06-01T00:53:00.670Z,18.91
2018-06-01T00:56:02.759Z,18.90
2018-06-01T00:59:04.824Z,18.70
2018-06-01T01:02:06.892Z,18.70
2018-06-01T01:05:09.062Z,18.72
2018-06-01T01:08:11.248Z,18.72
2018-06-01T01:11:13.498Z,18.64
2018-06-01T01:14:15.483Z,18.60
2018-06-01T01:17:18.169Z,18.56
2018-06-01T01:20:20.245Z,18.61
2018-06-01T01:23:22.464Z,18.68
2018-06-01T01:26:24.630Z,18.63
2018-06-01T01:29:26.674Z,18.66
2018-06-01T01:32:28.822Z,18.71
2018-06-01T01:35:30.930Z,18.66
2018-06-01T01:38:33.045Z,18.69
2018-06-01T01:41:35.221Z,18.70
2018-06-01T01:44:38.358Z,18.68
2018-06-01T01:47:40.501Z,18.55
2018-06-01T01:50:42.910Z,18.64
2018-06-01T01:53:46.052Z,18.69
2018-06-01T01:56:48.131Z,18.62
2018-06-01T01:59:50.308Z,18.55
2018-06-01T02:02:52.372Z,18.66
2018-06-01T02:05:54.442Z,18.61
2018-06-01T02:08:56.777Z,18.60
2018-06-01T02:11:58.896Z,18.64
2018-06-01T02:15:00.846Z,18.67
2018-06-01T02:18:02.964Z,18.57
2018-06-01T02:21:05.096Z,18.50
2018-06-01T02:24:07.157Z,18.47
2018-06-01T02:27:09.318Z,18.42
2018-06-01T02:30:12.889Z,18.42
2018-06-01T02:33:15.008Z,18.34
2018-06-01T02:36:17.176Z,18.29
2018-06-01T02:39:19.307Z,18.29
2018-06-01T02:42:21.508Z,18.24
2018-06-01T02:45:23.628Z,18.21
2018-06-01T02:48:25.765Z,18.24
2018-06-01T02:51:28.950Z,18.13
2018-06-01T02:54:31.080Z,18.15
2018-06-01T02:57:33.216Z,18.17
2018-06-01T03:00:35.419Z,18.06
2018-06-01T03:03:37.560Z,18.10
2018-06-01T03:06:48.796Z,17.97
2018-06-01T03:09:50.994Z,18.00
2018-06-01T03:12:53.033Z,17.99
2018-06-01T03:16:03.562Z,17.98
2018-06-01T03:19:05.571Z,18.00
2018-06-01T03:22:07.669Z,17.97
2018-06-01T03:25:09.733Z,17.97
2018-06-01T03:28:13.030Z,18.06
2018-06-01T03:31:15.177Z,18.03
2018-06-01T03:34:17.252Z,17.96
2018-06-01T03:37:19.423Z,18.09
2018-06-01T03:40:22.580Z,18.08
2018-06-01T03:43:24.693Z,18.11
2018-06-01T03:46:26.772Z,18.08
2018-06-01T03:49:28.933Z,18.08
2018-06-01T03:52:31.060Z,18.08
2018-06-01T03:55:33.056Z,18.09
2018-06-01T03:58:35.136Z,18.09
2018-06-01T04:01:37.313Z,18.07
2018-06-01T04:04:39.416Z,18.07
2018-06-01T04:07:42.868Z,18.10
2018-06-01T04:10:45.136Z,18.20
2018-06-01T04:13:47.184Z,18.14
2018-06-01T04:16:49.307Z,18.16
2018-06-01T04:19:51.368Z,18.17
2018-06-01T04:22:53.435Z,18.18
2018-06-01T04:25:55.590Z,18.16
2018-06-01T04:28:58.704Z,18.20
2018-06-01T04:32:00.945Z,18.26
2018-06-01T04:35:03.047Z,18.25
2018-06-01T04:38:05.095Z,18.28
2018-06-01T04:41:07.202Z,18.31
2018-06-01T04:44:09.385Z,18.31
2018-06-01T04:47:12.599Z,18.34
2018-06-01T04:50:14.723Z,18.30
2018-06-01T04:53:16.860Z,18.30
2018-06-01T04:56:18.961Z,18.37
2018-06-01T04:59:20.931Z,18.39
2018-06-01T05:02:22.979Z,18.50
2018-06-01T05:05:36.546Z,18.49
2018-06-01T05:08:38.592Z,18.60
2018-06-01T05:11:40.675Z,18.60
2018-06-01T05:14:43.412Z,18.61
2018-06-01T05:17:47.524Z,18.60
2018-06-01T05:21:00.508Z,18.60
2018-06-01T05:24:02.554Z,18.63
2018-06-01T05:27:04.656Z,18.68
2018-06-01T05:30:06.613Z,18.70
2018-06-01T05:33:08.764Z,18.77
2018-06-01T05:36:10.952Z,18.76
2018-06-01T05:39:14.060Z,18.76
2018-06-01T05:42:16.088Z,18.78
2018-06-01T05:45:18.169Z,18.80
2018-06-01T05:48:20.429Z,18.85
2018-06-01T05:51:22.532Z,18.89
2018-06-01T05:54:24.609Z,18.87
2018-06-01T05:57:26.657Z,18.93
2018-06-01T06:00:28.692Z,18.96
2018-06-01T06:03:31.810Z,19.12
2018-06-01T06:06:33.975Z,19.17
2018-06-01T06:09:36.020Z,19.17
2018-06-01T06:12:38.091Z,19.14
2018-06-01T06:15:40.193Z,19.17
2018-06-01T06:18:43.387Z,19.14
2018-06-01T06:21:45.473Z,19.12
2018-06-01T06:24:47.628Z,19.04
2018-06-01T06:27:49.679Z,19.09
2018-06-01T06:30:51.907Z,19.11
2018-06-01T06:33:54.128Z,19.27
2018-06-01T06:36:56.324Z,19.30
2018-06-01T06:39:58.301Z,19.33
2018-06-01T06:43:01.333Z,19.37
2018-06-01T06:46:08.141Z,19.39
2018-06-01T06:49:10.209Z,19.47
2018-06-01T06:52:14.335Z,19.49
2018-06-01T06:55:16.416Z,19.54
2018-06-01T06:58:18.443Z,19.65
2018-06-01T07:01:20.537Z,19.63
2018-06-01T07:04:22.677Z,19.62
2018-06-01T07:07:24.774Z,19.71
2018-06-01T07:10:26.856Z,19.84
2018-06-01T07:13:29.391Z,19.99
2018-06-01T07:16:31.469Z,20.04
2018-06-01T07:19:33.600Z,20.14
2018-06-01T07:22:35.728Z,20.08
2018-06-01T07:25:37.827Z,19.98
2018-06-01T07:28:40.578Z,20.04
2018-06-01T07:31:42.673Z,19.96
2018-06-01T07:34:45.723Z,20.16
2018-06-01T07:37:47.872Z,20.25
2018-06-01T07:40:49.985Z,20.45
2018-06-01T07:43:52.096Z,20.58
2018-06-01T07:46:54.189Z,20.54
2018-06-01T07:49:56.326Z,20.59
2018-06-01T07:52:58.360Z,20.82
2018-06-01T07:56:00.525Z,20.81
2018-06-01T07:59:02.776Z,20.74
2018-06-01T08:02:04.909Z,20.84
2018-06-01T08:05:06.922Z,20.90
2018-06-01T08:08:09.009Z,20.94
2018-06-01T08:11:11.072Z,20.89
2018-06-01T08:14:14.275Z,21.01
2018-06-01T08:17:16.521Z,21.07
2018-06-01T08:20:18.686Z,21.22
2018-06-01T08:23:20.825Z,21.10
2018-06-01T08:26:22.836Z,20.99
2018-06-01T08:29:24.781Z,20.94
2018-06-01T08:32:26.951Z,21.02
2018-06-01T08:35:29.167Z,21.14
2018-06-01T08:38:32.304Z,21.21
2018-06-01T08:41:34.851Z,21.06
2018-06-01T08:44:36.945Z,21.20
2018-06-01T08:47:39.094Z,21.32
2018-06-01T08:50:42.205Z,21.29
2018-06-01T08:53:45.334Z,21.29
2018-06-01T08:56:47.431Z,21.30
2018-06-01T08:59:49.508Z,21.39
2018-06-01T09:02:51.651Z,21.43
2018-06-01T09:05:53.780Z,21.35
2018-06-01T09:08:55.766Z,21.41
2018-06-01T09:11:58.910Z,21.56
2018-06-01T09:15:00.910Z,21.37
2018-06-01T09:18:02.969Z,21.47
2018-06-01T09:21:05.050Z,21.61
2018-06-01T09:24:07.160Z,21.68
2018-06-01T09:27:09.243Z,21.73
2018-06-01T09:30:11.313Z,21.89
2018-06-01T09:33:13.532Z,21.81
2018-06-01T09:36:15.707Z,21.91
2018-06-01T09:39:17.691Z,21.89
2018-06-01T09:42:19.829Z,21.98
2018-06-01T09:45:21.963Z,21.97
2018-06-01T09:48:24.355Z,21.98
2018-06-01T09:51:26.564Z,22.12
2018-06-01T09:54:28.786Z,22.12
2018-06-01T09:57:30.868Z,22.20
2018-06-01T10:00:37.622Z,22.04
2018-06-01T10:03:39.680Z,22.06
2018-06-01T10:06:41.780Z,22.20
2018-06-01T10:09:45.340Z,22.53
2018-06-01T10:12:47.540Z,22.80
2018-06-01T10:15:49.608Z,23.03
2018-06-01T10:18:51.646Z,23.05
2018-06-01T10:21:53.754Z,23.16
2018-06-01T10:24:55.775Z,23.01
2018-06-01T10:27:57.855Z,22.93
2018-06-01T10:30:59.846Z,23.06
2018-06-01T10:34:01.950Z,23.17
2018-06-01T10:37:05.032Z,23.35
2018-06-01T10:40:07.095Z,23.41
2018-06-01T10:43:09.260Z,23.41
2018-06-01T10:46:11.394Z,23.39
2018-06-01T10:49:13.484Z,23.46
2018-06-01T10:52:16.756Z,23.62
2018-06-01T10:55:19.891Z,23.66
2018-06-01T10:58:22.092Z,23.71
2018-06-01T11:01:25.228Z,23.84
2018-06-01T11:04:27.327Z,24.23
2018-06-01T11:07:30.402Z,24.37
2018-06-01T11:10:32.459Z,24.41
2018-06-01T11:13:34.433Z,24.40
2018-06-01T11:16:36.524Z,24.41
2018-06-01T11:19:39.072Z,24.50
2018-06-01T11:22:41.165Z,24.63
2018-06-01T11:25:43.250Z,24.31
2018-06-01T11:28:46.507Z,24.20
2018-06-01T11:31:48.626Z,24.17
2018-06-01T11:34:51.480Z,24.43
2018-06-01T11:37:53.567Z,24.93
2018-06-01T11:40:55.794Z,25.18
2018-06-01T11:43:57.831Z,25.21
2018-06-01T11:47:00.004Z,25.28
2018-06-01T11:50:02.090Z,25.27
2018-06-01T11:53:04.280Z,25.36
2018-06-01T11:56:06.402Z,25.40
2018-06-01T11:59:08.446Z,25.60
2018-06-01T12:02:10.615Z,25.51
2018-06-01T12:05:12.678Z,25.54
2018-06-01T12:08:15.659Z,25.77
2018-06-01T12:11:17.960Z,25.96
2018-06-01T12:14:20.552Z,25.95
2018-06-01T12:17:22.662Z,25.87
2018-06-01T12:20:24.773Z,25.94
2018-06-01T12:23:27.027Z,25.80
2018-06-01T12:26:29.080Z,25.90
2018-06-01T12:29:31.185Z,26.08
2018-06-01T12:32:33.296Z,26.13
2018-06-01T12:35:35.355Z,26.18
2018-06-01T12:38:37.482Z,26.36
2018-06-01T12:41:39.564Z,26.20
2018-06-01T12:44:42.635Z,26.10
2018-06-01T12:47:45.960Z,26.13
2018-06-01T12:50:47.995Z,26.21
2018-06-01T12:53:50.092Z,26.28
2018-06-01T12:56:52.254Z,26.46
2018-06-01T12:59:54.311Z,26.59
2018-06-01T13:02:56.364Z,26.70
2018-06-01T13:05:58.488Z,26.97
2018-06-01T13:09:00.565Z,26.77
2018-06-01T13:12:02.660Z,26.86
2018-06-01T13:15:04.631Z,26.73
2018-06-01T13:18:06.724Z,26.88
2018-06-01T13:21:08.777Z,26.53
2018-06-01T13:24:10.929Z,26.79
2018-06-01T13:27:12.996Z,26.97
2018-06-01T13:30:16.139Z,26.68
2018-06-01T13:33:19.000Z,26.60
2018-06-01T13:36:21.123Z,26.05
2018-06-01T13:39:23.298Z,26.14
2018-06-01T13:42:25.436Z,25.91
2018-06-01T13:45:27.504Z,25.84
2018-06-01T13:48:29.705Z,25.84
2018-06-01T13:51:32.907Z,25.68
2018-06-01T13:54:34.952Z,25.91
2018-06-01T13:57:37.147Z,25.97
2018-06-01T14:00:39.335Z,25.86
2018-06-01T14:03:42.379Z,26.12
2018-06-01T14:06:44.445Z,26.48
2018-06-01T14:09:47.860Z,26.41
2018-06-01T14:12:49.947Z,26.48
2018-06-01T14:15:52.064Z,26.70
2018-06-01T14:18:54.132Z,26.98
2018-06-01T14:21:56.268Z,26.36
2018-06-01T14:24:58.495Z,26.31
2018-06-01T14:28:00.535Z,26.27
2018-06-01T14:31:02.632Z,25.78
2018-06-01T14:34:04.728Z,25.40
2018-06-01T14:37:07.861Z,25.15
2018-06-01T14:40:09.970Z,24.86
2018-06-01T14:43:12.018Z,24.64
2018-06-01T14:46:14.164Z,24.36
2018-06-01T14:49:17.037Z,24.62
2018-06-01T14:52:19.125Z,24.95
2018-06-01T14:55:21.145Z,25.36
2018-06-01T14:58:23.260Z,25.83
2018-06-01T15:01:25.261Z,25.96
2018-06-01T15:04:27.351Z,25.83
2018-06-01T15:07:29.373Z,26.04
2018-06-01T15:10:32.448Z,26.18
2018-06-01T15:13:34.566Z,26.03
2018-06-01T15:16:36.535Z,26.22
2018-06-01T15:19:38.591Z,26.06
2018-06-01T15:22:40.665Z,26.14
2018-06-01T15:25:42.805Z,26.34
2018-06-01T15:28:46.946Z,26.22
2018-06-01T15:31:49.023Z,26.36
2018-06-01T15:34:51.058Z,26.43
2018-06-01T15:37:53.169Z,26.46
2018-06-01T15:40:55.286Z,26.29
2018-06-01T15:43:57.474Z,26.20
2018-06-01T15:46:59.573Z,25.91
2018-06-01T15:50:01.824Z,25.90
2018-06-01T15:53:03.920Z,25.96
2018-06-01T15:56:06.052Z,25.76
2018-06-01T15:59:08.255Z,25.53
2018-06-01T16:02:10.360Z,25.37
2018-06-01T16:05:12.391Z,25.23
2018-06-01T16:08:14.622Z,25.06
2018-06-01T16:11:18.889Z,24.95
2018-06-01T16:14:20.994Z,24.75
2018-06-01T16:17:22.954Z,24.28
2018-06-01T16:20:24.974Z,24.05
2018-06-01T16:23:27.064Z,23.94
2018-06-01T16:26:29.117Z,24.25
2018-06-01T16:29:31.371Z,24.73
2018-06-01T16:32:34.493Z,24.86
2018-06-01T16:35:36.649Z,25.18
2018-06-01T16:38:38.705Z,25.22
2018-06-01T16:41:40.799Z,25.29
2018-06-01T16:44:42.951Z,25.21
2018-06-01T16:47:45.091Z,25.38
2018-06-01T16:50:48.335Z,25.16
2018-06-01T16:53:51.442Z,25.08
2018-06-01T16:56:54.514Z,25.10
2018-06-01T16:59:56.680Z,25.09
2018-06-01T17:02:58.807Z,25.28
2018-06-01T17:06:00.918Z,25.13
2018-06-01T17:09:03.871Z,25.26
2018-06-01T17:12:06.043Z,25.17
2018-06-01T17:15:08.588Z,25.09
2018-06-01T17:18:10.746Z,25.05
2018-06-01T17:21:12.827Z,25.01
2018-06-01T17:24:14.891Z,24.87
2018-06-01T17:27:18.164Z,25.02
2018-06-01T17:30:20.241Z,24.92
2018-06-01T17:33:22.351Z,24.58
2018-06-01T17:36:24.472Z,24.58
2018-06-01T17:39:26.744Z,24.70
2018-06-01T17:42:28.951Z,24.77
2018-06-01T17:45:31.228Z,24.74
2018-06-01T17:48:33.275Z,24.75
2018-06-01T17:51:35.499Z,24.87
2018-06-01T17:54:37.648Z,24.85
2018-06-01T17:57:39.906Z,24.76
2018-06-01T18:00:42.061Z,24.78
2018-06-01T18:03:44.143Z,24.81
2018-06-01T18:06:46.233Z,24.76
2018-06-01T18:09:48.988Z,24.62
2018-06-01T18:12:51.144Z,24.53
2018-06-01T18:15:53.483Z,24.54
2018-06-01T18:18:55.618Z,24.54
2018-06-01T18:21:57.668Z,24.36
2018-06-01T18:24:59.755Z,24.22
2018-06-01T18:28:01.828Z,24.06
2018-06-01T18:31:03.895Z,23.84
2018-06-01T18:34:05.893Z,23.64
2018-06-01T18:37:08.015Z,23.51
2018-06-01T18:40:10.052Z,23.34
2018-06-01T18:43:13.172Z,23.11
2018-06-01T18:46:15.229Z,22.98
2018-06-01T18:49:19.580Z,22.98
2018-06-01T18:52:21.734Z,23.05
2018-06-01T18:55:23.726Z,23.02
2018-06-01T18:58:25.766Z,23.02
2018-06-01T19:01:27.945Z,22.93
2018-06-01T19:04:30.123Z,22.80
2018-06-01T19:07:32.243Z,22.73
2018-06-01T19:10:34.408Z,22.71
2018-06-01T19:13:36.536Z,22.76
2018-06-01T19:16:38.709Z,22.79
2018-06-01T19:19:40.857Z,22.83
2018-06-01T19:22:42.915Z,22.91
2018-06-01T19:25:44.993Z,22.87
2018-06-01T19:28:49.945Z,22.91
2018-06-01T19:31:52.015Z,22.80
2018-06-01T19:34:54.104Z,22.70
2018-06-01T19:37:56.327Z,22.76
2018-06-01T19:40:58.439Z,22.80
2018-06-01T19:44:00.640Z,22.87
2018-06-01T19:47:02.668Z,22.96
2018-06-01T19:50:05.033Z,22.93
2018-06-01T19:53:07.097Z,22.94
2018-06-01T19:56:11.163Z,22.91
2018-06-01T19:59:13.296Z,22.88
2018-06-01T20:02:15.402Z,22.81
2018-06-01T20:05:18.427Z,22.75
2018-06-01T20:08:20.732Z,22.71
2018-06-01T20:11:22.809Z,22.68
2018-06-01T20:14:24.856Z,22.68
2018-06-01T20:17:27.034Z,22.56
2018-06-01T20:20:29.111Z,22.50
2018-06-01T20:23:31.308Z,22.53
2018-06-01T20:26:33.533Z,22.52
2018-06-01T20:29:35.724Z,22.53
2018-06-01T20:32:37.761Z,22.48
2018-06-01T20:35:39.866Z,22.40
2018-06-01T20:38:42.002Z,22.35
2018-06-01T20:41:44.092Z,22.35
2018-06-01T20:44:46.308Z,22.35
2018-06-01T20:47:49.643Z,22.32
2018-06-01T20:50:51.721Z,22.32
2018-06-01T20:53:54.499Z,22.23
2018-06-01T20:56:56.583Z,22.18
2018-06-01T20:59:58.819Z,22.15
2018-06-01T21:03:00.936Z,22.09
2018-06-01T21:06:03.038Z,22.04
2018-06-01T21:09:05.191Z,22.03
2018-06-01T21:12:07.319Z,21.90
2018-06-01T21:15:09.361Z,21.84
2018-06-01T21:18:11.521Z,21.89
2018-06-01T21:21:13.557Z,21.73
2018-06-01T21:24:15.698Z,21.62
2018-06-01T21:27:17.788Z,21.63
2018-06-01T21:30:19.827Z,21.69
2018-06-01T21:33:21.929Z,21.72
2018-06-01T21:36:24.844Z,21.72
2018-06-01T21:39:27.001Z,21.57
2018-06-01T21:42:29.047Z,21.48
2018-06-01T21:45:31.091Z,21.48
2018-06-01T21:48:33.307Z,21.52
2018-06-01T21:51:35.347Z,21.53
2018-06-01T21:54:38.486Z,21.50
2018-06-01T21:57:40.519Z,21.41
2018-06-01T22:00:42.640Z,21.42
2018-06-01T22:03:44.763Z,21.44
2018-06-01T22:06:46.803Z,21.41
2018-06-01T22:09:50.245Z,21.35
2018-06-01T22:12:52.407Z,21.31
2018-06-01T22:15:55.506Z,21.34
2018-06-01T22:18:57.535Z,21.32
2018-06-01T22:21:59.891Z,21.30
2018-06-01T22:25:02.015Z,21.26
2018-06-01T22:28:04.197Z,21.15
2018-06-01T22:31:06.241Z,21.12
2018-06-01T22:34:11.962Z,21.11
2018-06-01T22:37:14.054Z,21.08
2018-06-01T22:40:16.139Z,21.06
2018-06-01T22:43:18.338Z,20.95
2018-06-01T22:46:20.412Z,20.95
2018-06-01T22:49:22.348Z,20.86
2018-06-01T22:52:25.532Z,20.82
2018-06-01T22:55:27.652Z,20.78
2018-06-01T22:58:29.769Z,20.73
2018-06-01T23:01:31.824Z,20.67
2018-06-01T23:04:33.966Z,20.63
2018-06-01T23:07:36.043Z,20.58
2018-06-01T23:10:38.167Z,20.61
2018-06-01T23:13:40.208Z,20.61
2018-06-01T23:16:42.278Z,20.52
2018-06-01T23:19:44.673Z,20.36
2018-06-01T23:22:46.727Z,20.24
2018-06-01T23:25:48.797Z,20.19
2018-06-01T23:28:51.876Z,20.30
2018-06-01T23:31:55.200Z,20.32
2018-06-01T23:34:57.270Z,20.34
2018-06-01T23:37:59.328Z,20.27
2018-06-01T23:41:01.516Z,20.32
2018-06-01T23:44:03.548Z,20.34
2018-06-01T23:47:05.634Z,20.34
2018-06-01T23:50:07.688Z,20.30
2018-06-01T23:53:09.775Z,20.28
2018-06-01T23:56:11.868Z,20.32
2018-06-01T23:59:14.012Z,20.37
